Skip Navigation Links Skip Navigation Links

Current Weather

Knoxville Muni, Knoxville, Iowa

For information only: do not use for flight planning or navigation.
Latest weather
Observation time Tuesday, October 19, 2021 4:35 AM CDT
Local time Tuesday, October 19, 2021 4:44 AM CDT
Flight conditions Visual Meteorological Conditions
Winds
Wind direction South (170°)
Wind speed 7 mph
Visibility 10 mi.
Sky condition
Ceiling unlimited
Cloud layer scattered clouds 12,000 ft.
Temperature 54°F
Dewpoint 45°F
Altimeter 30.00 in.Hg
Derived measurements
Relative humidity 71%
Density altitude 625 ft.
Remarks
Fully automated report.
Automated weather observing station with precipitation discriminator.
METAR KOXV 190935Z AUTO 17006KT 10SM SCT120 12/07 A3000 RMK AO2

Settings

Location code

InnerDrive.Weather 4.0.6770.0 Release CLR 4.0.30319.42000
Copyright ©2018 Inner Drive Technology. All rights reserved. Portions Copyright ©1986-2018 David Braverman.

Find weather

Site navigation


Skip Navigation Links

Place info

Page info

PayPal - The safer, easier way to pay online!

Return home.

Copyright ©2021 Inner Drive Technology. Purveyors of fine, hand-crafted computer software. Page printed 2021-10-19T09:44:03 UTC.